Time;durP1;ratioP1;P1;durP2;ratioP2;P2;SDS_P1;SDS_P2;PMS_P1;PMS_P2;Temp;Humidity;BMP_temperature;BMP_pressure;BME280_temperature;BME280_humidity;BME280_pressure;Samples;Min_cycle;Max_cycle;Signal;HPM_P1;HPM_P2
2021/03/27 00:00:13;;;;;;;11.93;4.80;;;12.70;59.40;;;;;;4989380;28;20054;-74
2021/03/27 00:02:52;;;;;;;13.32;5.38;;;12.80;58.90;;;;;;4988056;28;20060;-73
2021/03/27 00:05:36;;;;;;;10.73;5.25;;;12.90;59.70;;;;;;4987236;28;20038;-75
2021/03/27 00:08:13;;;;;;;13.75;5.38;;;12.90;60.30;;;;;;4987752;28;20530;-72
2021/03/27 00:11:08;;;;;;;11.73;5.82;;;12.90;61.00;;;;;;4990126;28;20042;-73
2021/03/27 00:13:39;;;;;;;;;;;12.90;61.60;;;;;;4989083;28;20128;-73
2021/03/27 00:16:32;;;;;;;12.77;5.00;;;12.90;62.10;;;;;;4979992;28;20012;-74
2021/03/27 00:19:20;;;;;;;11.60;4.75;;;12.90;62.50;;;;;;4992032;28;20387;-74
2021/03/27 00:21:50;;;;;;;10.45;4.50;;;12.90;63.20;;;;;;4992345;28;20053;-74
2021/03/27 00:24:45;;;;;;;12.23;4.75;;;12.90;63.30;;;;;;4995693;28;20046;-75
2021/03/27 00:27:15;;;;;;;;;;;12.80;63.70;;;;;;4997466;28;20096;-73
2021/03/27 00:29:50;;;;;;;11.68;4.00;;;12.80;63.40;;;;;;4995151;28;20005;-73
2021/03/27 00:32:21;;;;;;;8.25;4.18;;;12.80;63.30;;;;;;4993454;28;20533;-75
2021/03/27 00:34:55;;;;;;;9.90;3.65;;;12.80;62.90;;;;;;4993425;28;20042;-74
2021/03/27 00:37:26;;;;;;;11.27;3.63;;;12.80;63.10;;;;;;4991596;28;20046;-76
2021/03/27 00:40:12;;;;;;;11.65;4.22;;;12.80;63.60;;;;;;4996294;28;20088;-73
2021/03/27 00:42:42;;;;;;;11.18;4.25;;;12.70;64.50;;;;;;4991895;28;20522;-72
2021/03/27 00:45:21;;;;;;;10.10;3.47;;;12.70;64.90;;;;;;4991233;28;20402;-74
2021/03/27 00:47:57;;;;;;;7.35;3.65;;;12.60;65.60;;;;;;4998596;28;20041;-74
2021/03/27 00:50:52;;;;;;;11.23;3.67;;;12.60;66.20;;;;;;4990343;28;20034;-74
2021/03/27 00:53:27;;;;;;;7.70;3.53;;;12.50;67.80;;;;;;4989576;28;20034;-73
2021/03/27 00:56:03;;;;;;;8.02;3.83;;;12.40;68.50;;;;;;4990225;28;20054;-74
2021/03/27 00:58:35;;;;;;;6.95;3.78;;;12.40;69.40;;;;;;4989187;28;20038;-73
2021/03/27 01:01:05;;;;;;;6.57;3.42;;;12.40;70.10;;;;;;4989640;28;20074;-73
2021/03/27 01:03:44;;;;;;;8.93;3.95;;;12.40;70.30;;;;;;4989233;28;20084;-73
2021/03/27 01:06:14;;;;;;;9.85;3.90;;;12.30;70.60;;;;;;4990940;28;20587;-73
2021/03/27 01:08:43;;;;;;;6.55;3.40;;;12.30;70.50;;;;;;4992884;28;20067;-73
2021/03/27 01:11:16;;;;;;;7.50;3.40;;;12.30;70.40;;;;;;4992362;28;20034;-73
2021/03/27 01:13:49;;;;;;;9.75;3.40;;;12.20;70.70;;;;;;4993234;28;20053;-73
2021/03/27 01:16:19;;;;;;;7.15;3.80;;;12.20;71.20;;;;;;4993153;28;20026;-73
2021/03/27 01:18:52;;;;;;;7.10;4.07;;;12.10;72.80;;;;;;4994066;28;20515;-73
2021/03/27 01:21:26;;;;;;;7.30;3.90;;;12.10;75.80;;;;;;4993603;28;20073;-74
2021/03/27 01:24:08;;;;;;;7.90;4.05;;;12.00;80.70;;;;;;4994826;28;20125;-76
2021/03/27 01:26:47;;;;;;;8.45;3.90;;;11.90;84.40;;;;;;4988479;28;20035;-72
2021/03/27 01:29:44;;;;;;;8.38;4.22;;;11.80;86.90;;;;;;4987809;28;20038;-74
2021/03/27 01:32:37;;;;;;;8.18;4.45;;;11.70;89.10;;;;;;4988550;28;20042;-74
2021/03/27 01:35:28;;;;;;;7.85;4.18;;;11.70;90.60;;;;;;4988993;28;20063;-72
2021/03/27 01:37:59;;;;;;;9.02;4.20;;;11.60;91.10;;;;;;4989561;28;20104;-74
2021/03/27 01:40:56;;;;;;;12.65;4.90;;;11.50;91.50;;;;;;4990141;28;20038;-74
2021/03/27 01:43:27;;;;;;;13.82;4.10;;;11.50;91.80;;;;;;4993677;28;20729;-74
2021/03/27 01:46:19;;;;;;;6.35;3.95;;;11.50;92.00;;;;;;4992073;28;20403;-74
2021/03/27 01:49:20;;;;;;;7.60;4.30;;;11.50;93.10;;;;;;4991291;28;20080;-74
2021/03/27 01:52:47;;;;;;;8.20;4.07;;;11.40;96.20;;;;;;4993111;28;20030;-74
2021/03/27 01:55:27;;;;;;;7.72;4.35;;;11.30;99.70;;;;;;4996220;28;20025;-75
2021/03/27 01:58:12;;;;;;;12.52;4.20;;;11.20;99.90;;;;;;4990623;28;20048;-75
2021/03/27 02:00:46;;;;;;;9.55;4.72;;;11.10;99.90;;;;;;4995033;28;20104;-74
2021/03/27 02:03:22;;;;;;;10.25;5.00;;;11.00;99.90;;;;;;4989239;28;20093;-74
2021/03/27 02:06:09;;;;;;;7.22;4.00;;;10.90;99.90;;;;;;4989939;28;20034;-74
2021/03/27 02:08:56;;;;;;;9.57;4.57;;;10.90;99.90;;;;;;4990723;28;20038;-73
2021/03/27 02:11:50;;;;;;;8.85;5.00;;;10.80;99.90;;;;;;4992994;28;20050;-75
2021/03/27 02:14:25;;;;;;;12.50;4.63;;;10.70;99.90;;;;;;4989447;28;20157;-74
2021/03/27 02:17:02;;;;;;;8.63;4.53;;;10.70;99.90;;;;;;4987106;28;20698;-74
2021/03/27 02:19:52;;;;;;;8.48;5.30;;;10.60;99.90;;;;;;4986567;28;20563;-74
2021/03/27 02:22:40;;;;;;;13.18;5.47;;;10.50;99.90;;;;;;4987220;28;20043;-75
2021/03/27 02:25:28;;;;;;;11.73;5.88;;;10.50;99.90;;;;;;4987392;28;20184;-73
2021/03/27 02:28:15;;;;;;;9.48;5.53;;;10.50;99.90;;;;;;4987750;28;20107;-75
2021/03/27 02:31:04;;;;;;;11.85;5.78;;;10.40;99.90;;;;;;4987203;28;20124;-74
2021/03/27 02:34:11;;;;;;;12.38;5.40;;;10.40;99.90;;;;;;4990985;28;20117;-76
2021/03/27 02:36:48;;;;;;;14.77;6.45;;;10.30;99.90;;;;;;4997629;28;20509;-76
2021/03/27 02:39:25;;;;;;;10.52;5.70;;;10.30;99.90;;;;;;4986938;28;20128;-76
2021/03/27 02:42:05;;;;;;;11.05;5.57;;;10.20;99.90;;;;;;4988843;28;20046;-75
2021/03/27 02:44:46;;;;;;;10.77;6.00;;;10.20;99.90;;;;;;4991413;28;20125;-75
2021/03/27 02:47:28;;;;;;;11.38;6.30;;;10.20;99.90;;;;;;4991393;28;20038;-75
2021/03/27 02:50:00;;;;;;;12.48;5.65;;;10.20;99.90;;;;;;4992224;28;20088;-74
2021/03/27 02:52:58;;;;;;;13.20;5.82;;;10.10;99.90;;;;;;4998500;28;20041;-75
2021/03/27 02:55:41;;;;;;;15.00;6.20;;;10.10;99.90;;;;;;4991452;28;20037;-74
2021/03/27 02:58:12;;;;;;;10.02;5.90;;;10.10;99.90;;;;;;4990715;28;20034;-74
2021/03/27 03:00:44;;;;;;;12.00;6.05;;;10.10;99.90;;;;;;5004322;28;21825;-74
2021/03/27 03:03:29;;;;;;;11.25;5.57;;;10.10;99.90;;;;;;4989070;28;20138;-74
2021/03/27 03:06:10;;;;;;;8.25;5.55;;;10.10;99.90;;;;;;4988353;28;20228;-74
2021/03/27 03:08:41;;;;;;;10.35;5.47;;;10.00;99.90;;;;;;4991117;28;20120;-74
2021/03/27 03:11:14;;;;;;;11.80;5.18;;;10.10;99.90;;;;;;4984106;28;20034;-76
2021/03/27 03:13:40;;;;;;;9.23;5.18;;;10.10;99.90;;;;;;4984986;28;20049;-73
2021/03/27 03:16:15;;;;;;;10.93;4.78;;;10.00;99.90;;;;;;4985348;28;20027;-74
2021/03/27 03:19:09;;;;;;;10.90;5.10;;;10.00;99.90;;;;;;4988085;28;20384;-74
2021/03/27 03:22:05;;;;;;;6.88;4.38;;;10.00;99.90;;;;;;4985567;28;20042;-75
2021/03/27 03:24:58;;;;;;;12.63;4.45;;;10.00;99.90;;;;;;4983270;28;20129;-74
2021/03/27 03:27:50;;;;;;;7.22;4.00;;;10.00;99.90;;;;;;4972218;28;20113;-76
2021/03/27 03:30:35;;;;;;;10.15;4.63;;;10.00;99.90;;;;;;4984730;28;20041;-75
2021/03/27 03:33:26;;;;;;;11.07;4.35;;;10.00;99.90;;;;;;4983035;28;20039;-77
2021/03/27 03:36:07;;;;;;;8.50;4.88;;;10.00;99.90;;;;;;4988494;28;20444;-76
2021/03/27 03:39:16;;;;;;;10.07;4.70;;;10.00;99.90;;;;;;4985805;28;20080;-76
2021/03/27 03:41:51;;;;;;;8.07;4.05;;;10.00;99.90;;;;;;4980688;28;20054;-74
2021/03/27 03:44:30;;;;;;;11.90;4.47;;;10.00;99.90;;;;;;4968637;28;20053;-77
2021/03/27 03:47:20;;;;;;;7.38;4.68;;;10.00;99.90;;;;;;4959083;28;20619;-74
2021/03/27 03:49:57;;;;;;;5.03;1.83;;;9.90;99.90;;;;;;4963116;28;20056;-74
2021/03/27 03:52:41;;;;;;;3.60;1.48;;;9.60;99.90;;;;;;4989074;28;20035;-74
2021/03/27 03:55:30;;;;;;;4.03;1.10;;;9.50;99.90;;;;;;4969998;28;20554;-76
2021/03/27 03:58:09;;;;;;;4.20;0.90;;;9.20;99.90;;;;;;4997000;28;20118;-76
2021/03/27 04:01:09;;;;;;;1.38;0.90;;;8.90;99.90;;;;;;4993830;28;20042;-74
2021/03/27 04:03:54;;;;;;;1.92;0.60;;;8.70;99.90;;;;;;4991981;28;20558;-74
2021/03/27 04:06:22;;;;;;;;;;;8.60;99.90;;;;;;4989558;28;20573;-73
2021/03/27 04:09:00;;;;;;;1.67;0.60;;;8.50;99.90;;;;;;4972504;28;20040;-72
2021/03/27 04:11:41;;;;;;;2.55;2.03;;;8.50;99.90;;;;;;4924006;28;20034;-73
2021/03/27 04:14:22;;;;;;;2.53;1.02;;;8.40;99.90;;;;;;4963548;28;20064;-75
2021/03/27 04:16:50;;;;;;;3.20;0.60;;;8.40;99.90;;;;;;4989968;28;20113;-74
2021/03/27 04:19:22;;;;;;;3.70;0.82;;;8.30;99.90;;;;;;4991903;28;20038;-74
2021/03/27 04:21:54;;;;;;;1.13;0.52;;;8.40;99.90;;;;;;4996195;28;20073;-74
2021/03/27 04:24:27;;;;;;;4.00;0.50;;;8.30;99.90;;;;;;4989463;28;20686;-75
2021/03/27 04:27:04;;;;;;;1.20;0.43;;;8.30;99.90;;;;;;4988667;28;20053;-74
2021/03/27 04:29:37;;;;;;;1.40;0.25;;;8.20;99.90;;;;;;4991439;28;20038;-75
2021/03/27 04:32:24;;;;;;;1.20;0.50;;;8.20;99.90;;;;;;4991245;28;20174;-75
2021/03/27 04:34:54;;;;;;;0.60;0.38;;;8.10;99.90;;;;;;4989120;28;20042;-76
2021/03/27 04:37:23;;;;;;;4.22;0.50;;;8.10;99.90;;;;;;4988702;28;20038;-76
2021/03/27 04:40:01;;;;;;;0.88;0.60;;;8.00;99.90;;;;;;4992228;28;20052;-73
2021/03/27 04:42:51;;;;;;;1.42;0.60;;;8.00;99.90;;;;;;4995180;28;20125;-73
2021/03/27 04:45:24;;;;;;;0.60;0.50;;;8.00;99.90;;;;;;4994058;28;20092;-78
2021/03/27 04:48:12;;;;;;;4.05;0.65;;;7.90;99.90;;;;;;4993317;28;20078;-74
2021/03/27 04:51:12;;;;;;;4.72;0.73;;;7.90;99.90;;;;;;4999089;28;20191;-73
2021/03/27 04:53:46;;;;;;;4.18;0.88;;;7.90;99.90;;;;;;4994611;28;20036;-74
2021/03/27 04:56:22;;;;;;;8.10;1.02;;;7.80;99.90;;;;;;4994444;28;20113;-74
2021/03/27 04:59:24;;;;;;;2.40;0.47;;;7.80;99.90;;;;;;4995444;28;20149;-74
2021/03/27 05:02:05;;;;;;;0.85;0.40;;;7.80;99.90;;;;;;4993123;28;20410;-75
2021/03/27 05:04:52;;;;;;;1.95;0.50;;;7.80;99.90;;;;;;4993674;28;20038;-74
2021/03/27 05:07:29;;;;;;;2.13;1.30;;;7.70;99.90;;;;;;4995913;28;20675;-75
2021/03/27 05:10:16;;;;;;;2.55;0.60;;;7.70;99.90;;;;;;4994208;28;20096;-75
2021/03/27 05:13:17;;;;;;;0.68;0.32;;;7.60;99.90;;;;;;4992544;28;20039;-73
2021/03/27 05:15:55;;;;;;;0.50;0.40;;;7.50;99.90;;;;;;5006439;28;20053;-75
2021/03/27 05:18:27;;;;;;;3.45;0.50;;;7.50;99.90;;;;;;5003061;28;20057;-74
2021/03/27 05:21:01;;;;;;;1.60;0.60;;;7.40;99.90;;;;;;4990402;28;20122;-75
2021/03/27 05:23:46;;;;;;;0.57;0.40;;;7.40;99.90;;;;;;4994524;28;20154;-74
2021/03/27 05:26:21;;;;;;;2.30;0.43;;;7.40;99.90;;;;;;4999171;28;20645;-74
2021/03/27 05:28:58;;;;;;;1.10;0.60;;;7.40;99.90;;;;;;4999310;28;20035;-75
2021/03/27 05:31:33;;;;;;;0.60;0.50;;;7.30;99.90;;;;;;5000742;28;20041;-74
2021/03/27 05:34:07;;;;;;;0.40;0.40;;;7.30;99.90;;;;;;4995209;28;20042;-75
2021/03/27 05:37:16;;;;;;;0.47;0.40;;;7.30;99.90;;;;;;4992673;28;20031;-74
2021/03/27 05:40:01;;;;;;;1.77;0.70;;;7.30;99.90;;;;;;4995291;28;20500;-74
2021/03/27 05:43:05;;;;;;;1.95;0.68;;;7.30;99.90;;;;;;4990386;28;20524;-74
2021/03/27 05:45:41;;;;;;;1.27;0.40;;;7.30;99.90;;;;;;4992739;28;20049;-74
2021/03/27 05:48:28;;;;;;;1.70;0.70;;;7.30;99.90;;;;;;4999682;28;20105;-73
2021/03/27 05:51:11;;;;;;;0.70;0.40;;;7.30;99.90;;;;;;4992092;28;20030;-75
2021/03/27 05:54:23;;;;;;;0.87;0.50;;;7.40;99.90;;;;;;4991948;28;20526;-75
2021/03/27 05:57:26;;;;;;;1.05;0.32;;;7.30;99.90;;;;;;4989302;28;20034;-74
2021/03/27 06:00:29;;;;;;;1.85;0.60;;;7.30;99.90;;;;;;4991417;28;20042;-76
2021/03/27 06:03:19;;;;;;;0.30;0.30;;;7.30;99.90;;;;;;4991063;28;20453;-74
2021/03/27 06:06:13;;;;;;;0.47;0.30;;;7.20;99.90;;;;;;5006372;28;20057;-73
2021/03/27 06:09:07;;;;;;;0.47;0.30;;;7.20;99.90;;;;;;4992189;28;20120;-75
2021/03/27 06:11:48;;;;;;;2.60;0.35;;;7.20;99.90;;;;;;5003061;28;20027;-74
2021/03/27 06:14:38;;;;;;;0.63;0.22;;;7.20;99.90;;;;;;4991529;28;20041;-75
2021/03/27 06:17:29;;;;;;;6.22;0.43;;;7.20;99.90;;;;;;4989675;28;20050;-75
2021/03/27 06:20:13;;;;;;;0.35;0.35;;;7.20;99.90;;;;;;4994483;28;20752;-75
2021/03/27 06:23:03;;;;;;;1.33;0.38;;;7.20;99.90;;;;;;4992028;28;20053;-74
2021/03/27 06:25:44;;;;;;;2.22;0.20;;;7.20;99.90;;;;;;4992936;28;20034;-75
2021/03/27 06:28:39;;;;;;;3.92;0.45;;;7.20;99.90;;;;;;4990805;28;20129;-73
2021/03/27 06:31:28;;;;;;;0.60;0.40;;;7.30;99.90;;;;;;4991557;28;20042;-74
2021/03/27 06:34:24;;;;;;;0.73;0.50;;;7.30;99.90;;;;;;5006076;28;20096;-74
2021/03/27 06:36:58;;;;;;;2.55;0.57;;;7.30;99.90;;;;;;4992994;28;20117;-73
2021/03/27 06:39:45;;;;;;;1.27;0.68;;;7.20;99.90;;;;;;4989327;28;20487;-75
2021/03/27 06:42:22;;;;;;;3.63;0.90;;;7.10;99.90;;;;;;4990768;28;20042;-75
2021/03/27 06:44:58;;;;;;;2.95;0.70;;;7.20;99.90;;;;;;4990525;28;20834;-77
2021/03/27 06:47:45;;;;;;;2.35;0.73;;;7.20;99.90;;;;;;4983151;28;20818;-74
2021/03/27 06:50:48;;;;;;;2.05;0.50;;;7.40;99.90;;;;;;5000398;28;20026;-74
2021/03/27 06:53:37;;;;;;;2.03;0.60;;;7.40;99.90;;;;;;4989116;28;20062;-73
2021/03/27 06:56:26;;;;;;;2.90;0.77;;;7.50;99.90;;;;;;4985041;28;20034;-74
2021/03/27 06:59:20;;;;;;;1.48;0.50;;;7.70;99.90;;;;;;4997957;28;20077;-77
2021/03/27 07:02:07;;;;;;;4.85;0.52;;;7.90;99.90;;;;;;4986473;28;20116;-74
2021/03/27 07:05:06;;;;;;;2.53;0.60;;;8.10;99.40;;;;;;4996602;28;20544;-75
2021/03/27 07:07:55;;;;;;;2.28;0.50;;;8.80;97.60;;;;;;4998513;28;20458;-74
2021/03/27 07:10:47;;;;;;;2.40;0.60;;;8.70;90.70;;;;;;4977617;28;20456;-75
2021/03/27 07:14:00;;;;;;;3.03;0.45;;;8.70;90.50;;;;;;4974831;28;20039;-74
2021/03/27 07:16:26;;;;;;;1.52;0.60;;;8.50;87.50;;;;;;4983975;28;20038;-74
2021/03/27 07:19:03;;;;;;;1.40;0.43;;;8.50;84.10;;;;;;4982998;28;20034;-73
2021/03/27 07:22:04;;;;;;;3.50;0.50;;;8.50;80.80;;;;;;4985559;28;20058;-75
2021/03/27 07:24:44;;;;;;;2.28;0.65;;;8.50;80.00;;;;;;4990046;28;20070;-75
2021/03/27 07:27:26;;;;;;;3.38;0.55;;;8.70;80.60;;;;;;4985049;28;20404;-74
2021/03/27 07:29:58;;;;;;;0.85;0.50;;;8.60;81.70;;;;;;4990804;28;20033;-74
2021/03/27 07:32:23;;;;;;;3.22;0.47;;;8.70;80.60;;;;;;4988822;28;20756;-74
2021/03/27 07:35:07;;;;;;;4.78;0.60;;;8.80;75.70;;;;;;4990579;28;20044;-75
2021/03/27 07:37:44;;;;;;;5.38;0.80;;;8.90;73.60;;;;;;4994255;28;20034;-75
2021/03/27 07:40:15;;;;;;;2.50;0.80;;;8.80;71.90;;;;;;4993382;28;20037;-74
2021/03/27 07:42:55;;;;;;;4.28;0.57;;;8.60;74.20;;;;;;4992280;28;20046;-74
2021/03/27 07:45:35;;;;;;;3.13;0.85;;;8.70;72.60;;;;;;4985219;28;20536;-75
2021/03/27 07:48:43;;;;;;;4.20;0.60;;;8.90;72.50;;;;;;4990608;28;20057;-74
2021/03/27 07:51:37;;;;;;;4.00;0.75;;;9.10;69.30;;;;;;4991304;28;20093;-76
2021/03/27 07:54:34;;;;;;;6.53;0.60;;;9.40;66.70;;;;;;4995640;28;20044;-74
2021/03/27 07:57:06;;;;;;;4.20;0.70;;;9.30;63.50;;;;;;5018871;28;20119;-72
2021/03/27 07:59:37;;;;;;;3.35;0.60;;;9.70;64.80;;;;;;4992720;28;20541;-76
2021/03/27 08:02:09;;;;;;;2.53;0.60;;;9.60;63.50;;;;;;4994700;28;20060;-73
2021/03/27 08:04:59;;;;;;;2.70;0.60;;;9.20;63.80;;;;;;5002250;28;20042;-74
2021/03/27 08:07:46;;;;;;;6.88;0.90;;;9.30;64.70;;;;;;4982998;28;20034;-75
2021/03/27 08:10:15;;;;;;;3.17;0.95;;;9.70;64.60;;;;;;4974019;28;20408;-74
2021/03/27 08:12:59;;;;;;;1.45;0.45;;;9.80;63.70;;;;;;4970528;28;20034;-75
2021/03/27 08:15:49;;;;;;;5.22;0.75;;;10.10;61.40;;;;;;4977341;28;20072;-71
2021/03/27 08:18:40;;;;;;;4.15;0.70;;;10.00;63.40;;;;;;4974660;28;20111;-74
2021/03/27 08:21:13;;;;;;;3.40;1.05;;;10.30;62.00;;;;;;5006713;28;20073;-74
2021/03/27 08:23:43;;;;;;;5.28;0.85;;;10.00;61.10;;;;;;4994383;28;20108;-73
2021/03/27 08:26:17;;;;;;;2.65;0.70;;;10.10;63.50;;;;;;4997221;28;20030;-74
2021/03/27 08:28:55;;;;;;;2.80;0.57;;;9.80;62.50;;;;;;4996933;28;20231;-74
2021/03/27 08:31:56;;;;;;;2.25;0.68;;;10.20;62.80;;;;;;4995712;28;20124;-75
2021/03/27 08:35:02;;;;;;;3.42;0.60;;;10.10;61.60;;;;;;4994024;28;20042;-74
2021/03/27 08:37:46;;;;;;;2.40;0.63;;;10.10;60.70;;;;;;5002171;28;20485;-74
2021/03/27 08:40:38;;;;;;;7.95;0.85;;;10.30;56.90;;;;;;4992242;28;20033;-75
2021/03/27 08:43:25;;;;;;;1.35;0.50;;;10.60;56.50;;;;;;4989321;28;20042;-75
2021/03/27 08:46:23;;;;;;;1.52;0.55;;;10.90;50.80;;;;;;4989648;28;20087;-75
2021/03/27 08:49:05;;;;;;;2.90;0.60;;;10.80;44.60;;;;;;4992665;28;20060;-74
2021/03/27 08:51:40;;;;;;;6.82;0.60;;;10.90;43.60;;;;;;4993957;28;20058;-74
2021/03/27 08:54:18;;;;;;;2.05;0.38;;;10.80;43.00;;;;;;4994103;28;20129;-75
2021/03/27 08:57:20;;;;;;;4.78;0.63;;;11.10;41.90;;;;;;4993639;28;20042;-75
2021/03/27 09:00:38;;;;;;;1.30;0.55;;;11.50;43.50;;;;;;5000790;28;20046;-76
2021/03/27 09:03:22;;;;;;;9.95;0.95;;;12.00;42.80;;;;;;4994586;28;20348;-75
2021/03/27 09:06:01;;;;;;;0.50;0.30;;;11.20;35.20;;;;;;4991539;28;20100;-75
2021/03/27 09:08:39;;;;;;;1.27;0.55;;;11.30;33.70;;;;;;4991990;28;20683;-74
2021/03/27 09:11:27;;;;;;;4.93;0.65;;;11.90;32.10;;;;;;4991478;28;20513;-75
2021/03/27 09:14:35;;;;;;;3.00;0.50;;;11.30;35.20;;;;;;4995865;28;20038;-75
2021/03/27 09:17:26;;;;;;;0.85;0.45;;;11.80;34.70;;;;;;4999007;28;20117;-74
2021/03/27 09:20:31;;;;;;;1.15;0.50;;;13.00;31.30;;;;;;4995052;28;20061;-76
2021/03/27 09:23:28;;;;;;;1.13;0.50;;;14.00;26.70;;;;;;4996553;28;20065;-73
2021/03/27 09:26:19;;;;;;;2.42;0.35;;;13.30;25.40;;;;;;4994439;28;20041;-76
2021/03/27 09:28:56;;;;;;;1.48;0.57;;;12.40;28.10;;;;;;4995241;28;20056;-74
2021/03/27 09:31:40;;;;;;;3.90;0.90;;;13.00;27.30;;;;;;4995574;28;20022;-74
2021/03/27 09:34:20;;;;;;;3.63;0.70;;;13.40;26.40;;;;;;4992586;28;20398;-74
2021/03/27 09:36:57;;;;;;;2.70;0.60;;;14.30;25.80;;;;;;4994370;28;20114;-74
2021/03/27 09:39:49;;;;;;;4.90;0.60;;;14.10;24.20;;;;;;4991907;28;20038;-75
2021/03/27 09:42:42;;;;;;;1.15;0.32;;;13.80;26.70;;;;;;4994357;28;20034;-74
2021/03/27 09:45:27;;;;;;;2.25;0.60;;;13.50;25.20;;;;;;4994503;28;20117;-74
2021/03/27 09:48:26;;;;;;;1.95;0.50;;;13.20;24.80;;;;;;4993170;28;20046;-74
2021/03/27 09:51:08;;;;;;;2.33;0.73;;;13.40;24.00;;;;;;4993120;28;20154;-73
2021/03/27 09:53:56;;;;;;;5.30;1.25;;;13.30;24.70;;;;;;4993483;28;20682;-74
2021/03/27 09:56:48;;;;;;;2.72;0.77;;;13.00;25.00;;;;;;4994336;28;20109;-74
2021/03/27 09:59:19;;;;;;;9.02;1.13;;;13.70;24.00;;;;;;4994484;28;20174;-75
2021/03/27 10:01:58;;;;;;;2.70;0.50;;;14.30;21.00;;;;;;4993987;28;20065;-73
2021/03/27 10:04:50;;;;;;;1.58;0.50;;;13.00;23.20;;;;;;4996190;28;20070;-75
2021/03/27 10:07:16;;;;;;;4.72;1.13;;;13.60;21.20;;;;;;4993343;28;20042;-75
2021/03/27 10:10:06;;;;;;;5.88;0.45;;;14.10;20.80;;;;;;4993621;28;20037;-75
2021/03/27 10:12:41;;;;;;;4.95;0.68;;;15.10;19.40;;;;;;4995291;28;20046;-75
2021/03/27 10:15:20;;;;;;;4.57;0.70;;;14.30;18.50;;;;;;4994517;28;20100;-75
2021/03/27 10:17:54;;;;;;;2.92;0.30;;;13.70;19.30;;;;;;4993246;28;20048;-74
2021/03/27 10:20:46;;;;;;;2.55;0.47;;;13.30;19.40;;;;;;4991171;28;21267;-74
2021/03/27 10:23:16;;;;;;;3.80;1.10;;;14.70;18.50;;;;;;4992368;28;20754;-74
2021/03/27 10:26:03;;;;;;;3.92;0.60;;;16.10;16.30;;;;;;4999532;28;20239;-74
2021/03/27 10:28:41;;;;;;;5.18;0.50;;;16.70;15.90;;;;;;4992478;28;20530;-73
2021/03/27 10:31:21;;;;;;;3.42;0.60;;;17.40;16.20;;;;;;4994321;28;20056;-74
2021/03/27 10:33:52;;;;;;;1.17;0.40;;;17.70;16.10;;;;;;4997951;28;20037;-74
2021/03/27 10:36:35;;;;;;;2.30;0.63;;;16.40;17.10;;;;;;4992747;28;20038;-76
2021/03/27 10:39:16;;;;;;;2.60;0.80;;;14.60;15.70;;;;;;4993582;28;20090;-75
2021/03/27 10:42:12;;;;;;;2.22;0.80;;;13.50;18.00;;;;;;4992335;28;20034;-76
2021/03/27 10:45:01;;;;;;;3.00;0.40;;;12.90;20.20;;;;;;4995195;28;20037;-74
2021/03/27 10:47:36;;;;;;;4.15;0.82;;;14.20;20.70;;;;;;4991398;28;20109;-75
2021/03/27 10:50:19;;;;;;;3.20;0.52;;;14.90;19.40;;;;;;4997173;28;20037;-74
2021/03/27 10:53:03;;;;;;;2.42;0.55;;;13.00;19.40;;;;;;4992564;28;20061;-74
2021/03/27 10:55:43;;;;;;;4.05;0.93;;;12.20;21.10;;;;;;4993909;28;20038;-75
2021/03/27 10:58:18;;;;;;;3.00;0.85;;;13.00;21.20;;;;;;4989568;28;20042;-74
2021/03/27 11:00:52;;;;;;;;;;;12.20;20.30;;;;;;4987039;28;20030;-74
2021/03/27 11:03:55;;;;;;;3.92;0.47;;;11.70;20.60;;;;;;4997632;28;19914;-73
2021/03/27 11:06:43;;;;;;;1.10;0.60;;;11.50;22.20;;;;;;4984609;28;20074;-74
2021/03/27 11:09:43;;;;;;;4.13;0.70;;;11.20;22.80;;;;;;4994944;28;20496;-74
2021/03/27 11:12:15;;;;;;;6.20;0.88;;;11.50;23.60;;;;;;4985744;28;20118;-74
2021/03/27 11:15:02;;;;;;;2.47;0.50;;;13.40;21.80;;;;;;4987329;28;20030;-74
2021/03/27 11:18:00;;;;;;;2.20;0.47;;;14.10;18.40;;;;;;4984710;28;20057;-75
2021/03/27 11:20:50;;;;;;;1.92;0.40;;;14.80;17.60;;;;;;4999120;28;20133;-75
2021/03/27 11:23:40;;;;;;;2.25;0.65;;;14.80;17.80;;;;;;4998878;28;20137;-74
2021/03/27 11:26:47;;;;;;;1.92;0.80;;;13.40;19.00;;;;;;4992271;28;20061;-74
2021/03/27 11:29:40;;;;;;;3.67;0.73;;;12.50;20.20;;;;;;4987663;28;20062;-75
2021/03/27 11:32:19;;;;;;;4.25;0.70;;;12.30;21.70;;;;;;4993553;28;20038;-74
2021/03/27 11:34:57;;;;;;;2.92;0.88;;;11.60;21.50;;;;;;4994017;28;20060;-74
2021/03/27 11:37:25;;;;;;;2.05;0.50;;;11.70;23.20;;;;;;4992169;28;20038;-75
2021/03/27 11:40:25;;;;;;;5.38;0.80;;;12.20;22.30;;;;;;4993140;28;20088;-73
2021/03/27 11:42:53;;;;;;;1.77;0.57;;;12.40;22.30;;;;;;4992070;28;20570;-75
2021/03/27 11:45:36;;;;;;;1.77;0.70;;;12.00;20.80;;;;;;4989502;28;20061;-75
2021/03/27 11:48:01;;;;;;;3.72;0.88;;;12.00;24.00;;;;;;4991203;28;20479;-75
2021/03/27 11:50:42;;;;;;;6.75;0.93;;;11.90;22.60;;;;;;4992371;28;20140;-75
2021/03/27 11:53:35;;;;;;;4.05;0.98;;;11.60;22.50;;;;;;4992933;28;20054;-74
2021/03/27 11:56:35;;;;;;;7.03;1.10;;;12.30;22.70;;;;;;4991957;28;20030;-74
2021/03/27 11:59:42;;;;;;;7.63;0.88;;;11.60;22.10;;;;;;4992915;28;20038;-75
2021/03/27 12:02:49;;;;;;;9.48;1.00;;;11.20;22.60;;;;;;4991062;28;20039;-76
2021/03/27 12:05:35;;;;;;;2.72;0.82;;;11.20;23.70;;;;;;4991479;28;20061;-75
2021/03/27 12:08:04;;;;;;;4.03;0.88;;;11.80;22.50;;;;;;4992943;28;20034;-75
2021/03/27 12:10:53;;;;;;;3.05;0.75;;;11.20;23.40;;;;;;4994588;28;20026;-75
2021/03/27 12:13:36;;;;;;;7.40;0.98;;;11.20;23.80;;;;;;4991276;28;20482;-72
2021/03/27 12:16:21;;;;;;;4.43;1.05;;;10.90;23.90;;;;;;4997462;28;20037;-75
2021/03/27 12:19:11;;;;;;;5.93;0.82;;;11.20;24.20;;;;;;5001309;28;20038;-74
2021/03/27 12:21:51;;;;;;;3.45;0.80;;;11.00;23.80;;;;;;4998383;28;20043;-78
2021/03/27 12:24:37;;;;;;;2.47;0.80;;;11.50;24.00;;;;;;4994988;28;20058;-75
2021/03/27 12:27:23;;;;;;;3.00;1.05;;;12.20;23.40;;;;;;4994237;28;20708;-75
2021/03/27 12:30:20;;;;;;;5.15;1.05;;;12.70;22.20;;;;;;4994372;28;20058;-74
2021/03/27 12:33:04;;;;;;;6.07;1.08;;;12.50;22.20;;;;;;4995216;28;20074;-74
2021/03/27 12:35:46;;;;;;;3.50;1.10;;;12.10;22.90;;;;;;4994719;28;20118;-74
2021/03/27 12:38:17;;;;;;;1.27;0.70;;;11.90;23.20;;;;;;4994463;28;20053;-75
2021/03/27 12:40:50;;;;;;;5.70;0.80;;;12.00;22.90;;;;;;4994752;28;20035;-75
2021/03/27 12:43:19;;;;;;;1.75;0.70;;;13.40;22.50;;;;;;4993023;28;20435;-74
2021/03/27 12:46:05;;;;;;;4.07;1.00;;;15.10;20.10;;;;;;4990588;28;20112;-75
2021/03/27 12:48:49;;;;;;;2.80;0.98;;;14.40;19.50;;;;;;4992913;28;20038;-74
2021/03/27 12:51:47;;;;;;;1.80;0.68;;;13.30;20.40;;;;;;4997373;28;20432;-75
2021/03/27 12:54:35;;;;;;;5.43;1.10;;;12.90;21.70;;;;;;4997342;28;20038;-76
2021/03/27 12:57:45;;;;;;;5.43;0.90;;;12.70;21.60;;;;;;4995513;28;20034;-74
2021/03/27 13:00:50;;;;;;;3.20;0.77;;;12.60;21.80;;;;;;4990459;28;20088;-73
2021/03/27 13:03:44;;;;;;;4.40;1.05;;;12.10;21.10;;;;;;5022237;28;20494;-73
2021/03/27 13:06:34;;;;;;;4.90;0.65;;;12.20;21.50;;;;;;5002435;28;20035;-72
2021/03/27 13:09:12;;;;;;;6.10;0.60;;;11.80;21.80;;;;;;4983014;28;20558;-74
2021/03/27 13:11:52;;;;;;;4.63;0.88;;;13.00;21.20;;;;;;4967590;28;20049;-74
2021/03/27 13:14:37;;;;;;;4.00;1.00;;;14.60;19.60;;;;;;4967609;28;20248;-76
2021/03/27 13:17:24;;;;;;;4.32;1.30;;;13.30;19.60;;;;;;4973099;28;20121;-73
2021/03/27 13:20:23;;;;;;;4.50;0.77;;;12.90;20.10;;;;;;4989132;28;20034;-76
2021/03/27 13:23:11;;;;;;;4.35;0.68;;;14.50;18.10;;;;;;4999245;28;21059;-79
2021/03/27 13:25:56;;;;;;;6.10;1.08;;;15.10;16.70;;;;;;4991329;28;20037;-78
2021/03/27 13:28:40;;;;;;;;;;;15.20;16.50;;;;;;4992424;28;20163;-77
2021/03/27 13:31:16;;;;;;;2.92;0.68;;;13.40;18.40;;;;;;4991258;28;19972;-76
2021/03/27 13:33:58;;;;;;;6.22;0.70;;;12.70;18.60;;;;;;4991635;28;20439;-77
2021/03/27 13:36:38;;;;;;;1.73;0.55;;;12.20;19.60;;;;;;4992280;28;20053;-78
2021/03/27 13:39:19;;;;;;;4.22;1.00;;;12.10;21.10;;;;;;4992635;28;20144;-76
2021/03/27 13:42:24;;;;;;;3.85;0.70;;;12.00;21.60;;;;;;4997435;28;20054;-77
2021/03/27 13:45:13;;;;;;;3.63;0.80;;;11.80;21.80;;;;;;5007938;28;20624;-78
2021/03/27 13:48:05;;;;;;;5.25;1.00;;;12.50;20.80;;;;;;4991331;28;20173;-77
2021/03/27 13:51:01;;;;;;;6.03;0.90;;;12.20;20.40;;;;;;4995222;28;20066;-76
2021/03/27 13:53:32;;;;;;;3.63;1.00;;;12.10;20.90;;;;;;4992297;28;20121;-77
2021/03/27 13:56:03;;;;;;;4.50;0.95;;;12.00;20.70;;;;;;4993589;28;20129;-78
2021/03/27 13:58:50;;;;;;;9.30;0.90;;;12.20;21.20;;;;;;5000050;28;20660;-76
2021/03/27 14:01:27;;;;;;;9.82;1.15;;;12.20;21.20;;;;;;4993850;28;20050;-77
2021/03/27 14:04:14;;;;;;;7.97;1.17;;;12.20;21.40;;;;;;4992875;28;20034;-78
2021/03/27 14:06:57;;;;;;;4.65;0.90;;;12.40;21.30;;;;;;4990658;28;20662;-77
2021/03/27 14:09:34;;;;;;;1.92;0.70;;;12.20;21.70;;;;;;4991412;28;20027;-77
2021/03/27 14:12:30;;;;;;;3.88;0.88;;;12.40;21.70;;;;;;4995101;28;20037;-77
2021/03/27 14:15:05;;;;;;;4.47;1.02;;;12.90;21.00;;;;;;4994619;28;20353;-78
2021/03/27 14:18:05;;;;;;;9.65;1.30;;;12.30;20.50;;;;;;4995135;28;20481;-78